createdAt,value
2022-07-28T00:01:55.421Z,89.40
2022-07-28T00:04:27.053Z,85.60
2022-07-28T00:06:58.323Z,85.80
2022-07-28T00:09:30.397Z,87.80
2022-07-28T00:12:04.338Z,87.30
2022-07-28T00:14:36.077Z,87.40
2022-07-28T00:17:07.658Z,87.30
2022-07-28T00:19:39.288Z,87.60
2022-07-28T00:22:10.463Z,86.90
2022-07-28T00:24:42.044Z,86.50
2022-07-28T00:27:19.272Z,86.90
2022-07-28T00:29:51.398Z,86.00
2022-07-28T00:32:23.255Z,85.00
2022-07-28T00:34:54.563Z,85.60
2022-07-28T00:37:25.773Z,85.10
2022-07-28T00:39:57.537Z,84.90
2022-07-28T00:42:31.224Z,84.30
2022-07-28T00:45:02.859Z,83.50
2022-07-28T00:47:34.376Z,86.10
2022-07-28T00:50:06.063Z,84.40
2022-07-28T00:52:37.769Z,84.60
2022-07-28T00:55:10.173Z,82.50
2022-07-28T00:57:44.306Z,83.70
2022-07-28T01:00:16.554Z,88.50
2022-07-28T01:02:49.270Z,86.20
2022-07-28T01:05:44.048Z,85.00
2022-07-28T01:08:22.531Z,86.90
2022-07-28T01:11:01.886Z,86.50
2022-07-28T01:13:41.798Z,89.00
2022-07-28T01:16:13.634Z,90.80
2022-07-28T01:18:50.868Z,90.30
2022-07-28T01:21:28.579Z,89.60
2022-07-28T01:24:13.687Z,90.30
2022-07-28T01:27:00.409Z,90.70
2022-07-28T01:30:04.304Z,91.40
2022-07-28T01:32:42.407Z,92.20
2022-07-28T01:35:18.833Z,92.90
2022-07-28T01:38:00.696Z,92.30
2022-07-28T01:40:36.352Z,91.40
2022-07-28T01:43:13.351Z,92.90
2022-07-28T01:45:47.747Z,92.30
2022-07-28T01:48:23.051Z,92.10
2022-07-28T01:50:57.381Z,92.70
2022-07-28T01:53:30.758Z,90.90
2022-07-28T01:56:10.423Z,92.90
2022-07-28T01:58:43.134Z,92.10
2022-07-28T02:01:16.353Z,91.30
2022-07-28T02:03:51.973Z,92.50
2022-07-28T02:06:25.011Z,91.50
2022-07-28T02:08:57.741Z,91.50
2022-07-28T02:11:44.626Z,91.60
2022-07-28T02:14:19.590Z,92.50
2022-07-28T02:16:55.402Z,91.20
2022-07-28T02:19:31.139Z,91.70
2022-07-28T02:22:05.067Z,93.00
2022-07-28T02:24:38.303Z,92.00
2022-07-28T02:27:13.205Z,92.00
2022-07-28T02:29:51.142Z,92.70
2022-07-28T02:32:28.701Z,93.10
2022-07-28T02:35:09.410Z,92.80
2022-07-28T02:37:43.947Z,92.10
2022-07-28T02:40:22.589Z,93.70
2022-07-28T02:42:56.448Z,93.00
2022-07-28T02:45:30.321Z,93.10
2022-07-28T02:48:05.840Z,92.60
2022-07-28T02:50:41.245Z,94.30
2022-07-28T02:53:14.837Z,94.30
2022-07-28T02:55:49.673Z,95.30
2022-07-28T02:58:25.487Z,94.10
2022-07-28T03:00:58.437Z,94.10
2022-07-28T03:03:30.617Z,93.60
2022-07-28T03:06:05.029Z,94.40
2022-07-28T03:08:36.491Z,92.40
2022-07-28T03:11:11.852Z,92.90
2022-07-28T03:13:44.195Z,93.90
2022-07-28T03:16:15.898Z,94.10
2022-07-28T03:18:47.196Z,94.00
2022-07-28T03:21:21.415Z,93.60
2022-07-28T03:23:54.492Z,93.80
2022-07-28T03:26:32.572Z,94.20
2022-07-28T03:29:04.395Z,93.60
2022-07-28T03:31:40.285Z,94.00
2022-07-28T03:34:12.507Z,94.20
2022-07-28T03:36:50.240Z,94.10
2022-07-28T03:39:21.638Z,93.70
2022-07-28T03:41:55.300Z,94.60
2022-07-28T03:44:27.841Z,95.40
2022-07-28T03:47:00.690Z,96.40
2022-07-28T03:49:31.884Z,95.30
2022-07-28T03:52:06.087Z,95.80
2022-07-28T03:54:37.413Z,97.00
2022-07-28T03:57:08.929Z,95.40
2022-07-28T03:59:40.220Z,93.80
2022-07-28T04:02:11.885Z,95.20
2022-07-28T04:04:43.116Z,94.40
2022-07-28T04:07:17.253Z,96.50
2022-07-28T04:09:48.540Z,94.00
2022-07-28T04:12:20.064Z,95.40
2022-07-28T04:14:51.381Z,95.50
2022-07-28T04:17:22.878Z,93.80
2022-07-28T04:19:54.154Z,91.90
2022-07-28T04:22:28.263Z,90.80
2022-07-28T04:24:59.540Z,92.70
2022-07-28T04:27:31.164Z,92.50
2022-07-28T04:30:02.424Z,94.00
2022-07-28T04:32:33.895Z,92.20
2022-07-28T04:35:05.187Z,91.40
2022-07-28T04:37:39.944Z,92.50
2022-07-28T04:40:13.609Z,93.20
2022-07-28T04:42:45.701Z,94.00
2022-07-28T04:45:16.908Z,92.40
2022-07-28T04:47:48.586Z,89.10
2022-07-28T04:50:21.647Z,89.90
2022-07-28T04:53:04.972Z,90.10
2022-07-28T04:55:38.855Z,90.60
2022-07-28T04:58:10.554Z,90.10
2022-07-28T05:00:42.385Z,90.10
2022-07-28T05:03:13.675Z,90.50
2022-07-28T05:05:49.137Z,91.90
2022-07-28T05:08:29.037Z,92.80
2022-07-28T05:11:00.369Z,90.60
2022-07-28T05:13:34.275Z,91.10
2022-07-28T05:16:05.883Z,93.00
2022-07-28T05:18:37.504Z,85.30
2022-07-28T05:21:08.873Z,90.00
2022-07-28T05:23:47.390Z,85.60
2022-07-28T05:26:18.918Z,83.20
2022-07-28T05:28:50.676Z,83.90
2022-07-28T05:31:22.067Z,78.40
2022-07-28T05:33:53.571Z,82.70
2022-07-28T05:36:24.761Z,77.30
2022-07-28T05:38:58.968Z,75.90
2022-07-28T05:41:30.213Z,72.50
2022-07-28T05:44:01.797Z,69.00
2022-07-28T05:46:33.032Z,61.90
2022-07-28T05:49:05.510Z,60.40
2022-07-28T05:51:41.389Z,60.00
2022-07-28T05:54:16.506Z,66.00
2022-07-28T05:56:50.336Z,69.90
2022-07-28T05:59:22.040Z,62.80
2022-07-28T06:01:53.384Z,65.20
2022-07-28T06:04:26.513Z,64.30
2022-07-28T06:06:58.913Z,64.20
2022-07-28T06:09:33.088Z,58.60
2022-07-28T06:12:04.701Z,53.30
2022-07-28T06:14:36.395Z,53.20
2022-07-28T06:17:07.981Z,49.60
2022-07-28T06:19:39.710Z,49.60
2022-07-28T06:22:10.957Z,47.60
2022-07-28T06:24:45.215Z,47.30
2022-07-28T06:27:16.521Z,50.60
2022-07-28T06:29:48.118Z,45.60
2022-07-28T06:32:19.539Z,44.10
2022-07-28T06:34:51.134Z,43.90
2022-07-28T06:37:22.341Z,42.80
2022-07-28T06:39:56.597Z,47.00
2022-07-28T06:42:28.062Z,45.00
2022-07-28T06:45:00.071Z,42.90
2022-07-28T06:47:31.550Z,41.60
2022-07-28T06:50:03.471Z,41.70
2022-07-28T06:52:34.685Z,38.90
2022-07-28T06:55:09.450Z,37.90
2022-07-28T06:57:42.025Z,34.30
2022-07-28T07:00:15.354Z,36.10
2022-07-28T07:02:46.658Z,32.40
2022-07-28T07:05:18.506Z,29.40
2022-07-28T07:07:49.777Z,32.10
2022-07-28T07:10:24.041Z,28.80
2022-07-28T07:12:55.356Z,30.10
2022-07-28T07:15:26.657Z,29.00
2022-07-28T07:17:57.692Z,28.00
2022-07-28T07:20:29.337Z,27.70
2022-07-28T07:23:00.563Z,26.20
2022-07-28T07:25:34.753Z,27.80
2022-07-28T07:28:05.998Z,25.70
2022-07-28T07:30:37.569Z,25.40
2022-07-28T07:33:10.356Z,24.20
2022-07-28T07:35:42.365Z,24.60
2022-07-28T07:38:13.469Z,23.10
2022-07-28T07:40:47.368Z,24.40
2022-07-28T07:43:18.450Z,24.50
2022-07-28T07:45:50.058Z,23.40
2022-07-28T07:48:21.289Z,24.30
2022-07-28T07:50:54.189Z,23.80
2022-07-28T07:53:25.865Z,20.00
2022-07-28T07:55:59.697Z,20.40
2022-07-28T07:58:31.089Z,21.90
2022-07-28T08:01:02.604Z,21.30
2022-07-28T08:03:33.943Z,21.10
2022-07-28T08:06:07.357Z,20.80
2022-07-28T08:08:45.076Z,19.30
2022-07-28T08:11:22.322Z,21.00
2022-07-28T08:13:53.607Z,20.00
2022-07-28T08:16:25.219Z,20.90
2022-07-28T08:18:58.469Z,19.90
2022-07-28T08:21:31.307Z,20.90
2022-07-28T08:24:04.039Z,19.20
2022-07-28T08:26:38.203Z,19.50
2022-07-28T08:29:09.682Z,19.80
2022-07-28T08:31:41.420Z,20.00
2022-07-28T08:34:27.866Z,21.90
2022-07-28T08:37:04.615Z,19.60
2022-07-28T08:39:37.578Z,21.10
2022-07-28T08:42:18.730Z,23.20
2022-07-28T08:44:56.775Z,20.80
2022-07-28T08:47:40.416Z,22.60
2022-07-28T08:50:17.665Z,19.80
2022-07-28T08:52:52.002Z,21.70
2022-07-28T08:55:31.837Z,23.60
2022-07-28T08:58:07.101Z,21.60
2022-07-28T09:00:38.636Z,21.60
2022-07-28T09:03:10.756Z,21.50
2022-07-28T09:05:45.060Z,20.50
2022-07-28T09:08:16.740Z,22.30
2022-07-28T09:10:48.013Z,22.60
2022-07-28T09:13:22.037Z,23.10
2022-07-28T09:15:54.126Z,24.50
2022-07-28T09:18:26.566Z,23.90
2022-07-28T09:20:57.993Z,21.70
2022-07-28T09:23:41.771Z,22.20
2022-07-28T09:26:15.380Z,21.90
2022-07-28T09:28:53.982Z,24.20
2022-07-28T09:31:29.233Z,23.10
2022-07-28T09:34:03.839Z,22.40
2022-07-28T09:36:42.146Z,22.30
2022-07-28T09:39:14.192Z,21.00
2022-07-28T09:41:51.188Z,21.10
2022-07-28T09:44:27.653Z,20.90
2022-07-28T09:46:59.701Z,23.20
2022-07-28T09:49:46.196Z,23.60
2022-07-28T09:52:31.668Z,22.60
2022-07-28T09:55:04.385Z,22.40
2022-07-28T09:57:38.829Z,23.20
2022-07-28T10:00:31.689Z,23.30
2022-07-28T10:03:02.989Z,22.30
2022-07-28T10:05:44.656Z,21.70
2022-07-28T10:08:15.938Z,21.40
2022-07-28T10:11:02.432Z,22.80
2022-07-28T10:13:33.635Z,20.50
2022-07-28T10:16:14.848Z,22.90
2022-07-28T10:18:47.655Z,21.20
2022-07-28T10:21:20.718Z,24.10
2022-07-28T10:23:54.663Z,21.10
2022-07-28T10:26:31.134Z,22.80
2022-07-28T10:29:07.218Z,20.70
2022-07-28T10:31:47.850Z,21.30
2022-07-28T10:34:25.572Z,20.20
2022-07-28T10:36:59.232Z,23.30
2022-07-28T10:39:41.679Z,22.10
2022-07-28T10:42:14.620Z,22.60
2022-07-28T10:44:46.950Z,21.80
2022-07-28T10:47:23.592Z,20.00
2022-07-28T10:49:55.893Z,22.90
2022-07-28T10:52:59.467Z,20.20
2022-07-28T10:55:25.991Z,22.80
2022-07-28T10:58:17.501Z,23.00
2022-07-28T11:00:57.199Z,20.60
2022-07-28T11:03:44.755Z,23.20
2022-07-28T11:06:40.241Z,21.60
2022-07-28T11:09:26.754Z,21.30
2022-07-28T11:11:59.793Z,22.80
2022-07-28T11:14:37.942Z,21.90
2022-07-28T11:17:19.853Z,22.50
2022-07-28T11:20:27.045Z,20.20
2022-07-28T11:22:53.906Z,23.20
2022-07-28T11:25:25.867Z,23.00
2022-07-28T11:28:09.099Z,21.30
2022-07-28T11:30:58.584Z,21.10
2022-07-28T11:33:59.498Z,20.60
2022-07-28T11:37:04.590Z,21.60
2022-07-28T11:39:43.483Z,22.50
2022-07-28T11:42:29.614Z,21.20
2022-07-28T11:45:26.630Z,19.60
2022-07-28T11:48:21.635Z,22.00
2022-07-28T11:51:11.739Z,22.80
2022-07-28T11:53:48.058Z,20.40
2022-07-28T11:56:25.652Z,24.10
2022-07-28T11:59:00.597Z,23.60
2022-07-28T12:01:32.448Z,22.20
2022-07-28T12:04:16.202Z,27.10
2022-07-28T12:06:51.513Z,25.20
2022-07-28T12:09:42.036Z,25.60
2022-07-28T12:12:14.056Z,21.30
2022-07-28T12:14:46.495Z,23.40
2022-07-28T12:17:18.273Z,24.30
2022-07-28T12:19:50.539Z,23.30
2022-07-28T12:22:21.830Z,22.80
2022-07-28T12:25:02.768Z,22.50
2022-07-28T12:27:37.534Z,23.30
2022-07-28T12:30:10.695Z,23.30
2022-07-28T12:32:42.284Z,21.00
2022-07-28T12:35:13.925Z,20.70
2022-07-28T12:37:48.109Z,22.10
2022-07-28T12:40:27.687Z,22.80
2022-07-28T12:42:59.231Z,21.70
2022-07-28T12:45:33.392Z,21.50
2022-07-28T12:48:09.648Z,22.10
2022-07-28T12:50:42.126Z,23.70
2022-07-28T12:53:15.005Z,21.60
2022-07-28T12:55:49.158Z,22.80
2022-07-28T12:58:29.391Z,22.10
2022-07-28T13:01:01.749Z,21.20
2022-07-28T13:03:33.991Z,20.80
2022-07-28T13:06:13.543Z,19.80
2022-07-28T13:08:47.483Z,21.70
2022-07-28T13:11:42.734Z,23.40
2022-07-28T13:14:13.198Z,23.10
2022-07-28T13:16:45.146Z,23.40
2022-07-28T13:19:24.481Z,20.60
2022-07-28T13:22:01.528Z,22.30
2022-07-28T13:24:34.874Z,22.60
2022-07-28T13:27:10.825Z,23.20
2022-07-28T13:29:42.123Z,21.70
2022-07-28T13:32:13.664Z,20.00
2022-07-28T13:34:45.719Z,19.40
2022-07-28T13:37:17.721Z,20.40
2022-07-28T13:39:54.495Z,19.20
2022-07-28T13:42:30.471Z,21.70
2022-07-28T13:45:01.748Z,20.20
2022-07-28T13:47:39.162Z,20.80
2022-07-28T13:50:12.202Z,20.50
2022-07-28T13:52:43.792Z,23.00
2022-07-28T13:55:17.814Z,20.40
2022-07-28T13:57:57.097Z,22.40
2022-07-28T14:04:07.637Z,19.90
2022-07-28T14:07:02.666Z,21.40
2022-07-28T14:12:14.716Z,36.50
2022-07-28T14:14:48.174Z,27.90
2022-07-28T14:20:15.779Z,28.40
2022-07-28T14:22:47.832Z,28.40
2022-07-28T14:25:21.500Z,26.50
2022-07-28T14:27:57.001Z,24.50
2022-07-28T14:30:30.403Z,23.90
2022-07-28T14:33:01.842Z,25.00
2022-07-28T14:35:33.238Z,24.30
2022-07-28T14:38:49.758Z,25.00
2022-07-28T14:40:57.232Z,23.80
2022-07-28T14:43:31.178Z,25.00
2022-07-28T14:46:15.089Z,23.30
2022-07-28T14:48:49.661Z,22.60
2022-07-28T14:51:21.246Z,24.10
2022-07-28T14:53:52.501Z,21.10
2022-07-28T14:56:23.712Z,21.40
2022-07-28T14:58:57.397Z,22.00
2022-07-28T15:01:29.257Z,21.40
2022-07-28T15:04:10.269Z,21.50
2022-07-28T15:06:41.829Z,22.00
2022-07-28T15:09:13.303Z,21.60
2022-07-28T15:11:47.417Z,21.60
2022-07-28T15:14:21.567Z,20.70
2022-07-28T15:16:53.889Z,21.50
2022-07-28T15:19:25.230Z,21.00
2022-07-28T15:21:56.467Z,21.50
2022-07-28T15:24:30.678Z,21.70
2022-07-28T15:27:02.756Z,21.60
2022-07-28T15:29:36.838Z,21.00
2022-07-28T15:32:10.698Z,21.60
2022-07-28T15:34:44.423Z,22.30
2022-07-28T15:37:16.241Z,21.60
2022-07-28T15:39:47.616Z,22.30
2022-07-28T15:42:18.796Z,20.80
2022-07-28T15:44:52.932Z,22.60
2022-07-28T15:47:24.553Z,21.40
2022-07-28T15:49:55.948Z,22.00
2022-07-28T15:52:27.274Z,21.50
2022-07-28T15:54:58.420Z,21.70
2022-07-28T15:57:38.105Z,20.60
2022-07-28T16:00:13.567Z,20.40
2022-07-28T16:02:45.231Z,21.70
2022-07-28T16:05:16.520Z,22.20
2022-07-28T16:07:48.802Z,22.10
2022-07-28T16:10:20.139Z,20.90
2022-07-28T16:12:51.662Z,21.60
2022-07-28T16:15:27.160Z,21.60
2022-07-28T16:17:58.987Z,21.00
2022-07-28T16:20:30.371Z,21.00
2022-07-28T16:23:02.684Z,19.90
2022-07-28T16:25:34.913Z,20.00
2022-07-28T16:28:07.065Z,20.90
2022-07-28T16:30:41.151Z,20.70
2022-07-28T16:33:13.482Z,21.20
2022-07-28T16:35:44.701Z,21.00
2022-07-28T16:38:16.194Z,21.70
2022-07-28T16:40:47.512Z,21.90
2022-07-28T16:43:19.076Z,22.00
2022-07-28T16:45:53.021Z,22.40
2022-07-28T16:48:24.558Z,23.10
2022-07-28T16:50:55.922Z,23.30
2022-07-28T16:53:27.480Z,22.00
2022-07-28T16:55:58.728Z,21.90
2022-07-28T16:58:30.252Z,22.00
2022-07-28T17:01:04.186Z,22.60
2022-07-28T17:03:35.677Z,22.60
2022-07-28T17:06:07.330Z,22.60
2022-07-28T17:08:38.967Z,23.10
2022-07-28T17:11:10.319Z,22.20
2022-07-28T17:13:45.273Z,21.90
2022-07-28T17:16:19.541Z,22.10
2022-07-28T17:18:51.285Z,22.40
2022-07-28T17:21:22.561Z,23.00
2022-07-28T17:23:54.024Z,22.80
2022-07-28T17:29:17.116Z,23.00
2022-07-28T17:31:51.514Z,23.30
2022-07-28T17:34:24.069Z,23.30
2022-07-28T17:36:55.750Z,23.60
2022-07-28T17:39:27.245Z,23.70
2022-07-28T17:41:58.571Z,23.80
2022-07-28T17:44:30.032Z,23.90
2022-07-28T17:47:06.770Z,24.10
2022-07-28T17:49:44.954Z,24.50
2022-07-28T17:52:16.909Z,24.70
2022-07-28T17:55:01.321Z,24.30
2022-07-28T17:57:37.025Z,24.90
2022-07-28T18:00:11.910Z,25.60
2022-07-28T18:02:50.164Z,25.10
2022-07-28T18:05:22.026Z,25.70
2022-07-28T18:07:57.431Z,26.90
2022-07-28T18:10:30.715Z,26.90
2022-07-28T18:13:01.987Z,26.20
2022-07-28T18:15:34.406Z,26.50
2022-07-28T18:18:08.521Z,26.50
2022-07-28T18:20:40.616Z,26.50
2022-07-28T18:23:12.055Z,26.30
2022-07-28T18:25:45.392Z,26.80
2022-07-28T18:28:17.898Z,26.80
2022-07-28T18:30:50.668Z,26.90
2022-07-28T18:33:25.896Z,26.90
2022-07-28T18:35:57.344Z,26.70
2022-07-28T18:38:28.907Z,26.90
2022-07-28T18:41:01.138Z,27.00
2022-07-28T18:43:32.157Z,27.50
2022-07-28T18:46:03.496Z,27.60
2022-07-28T18:48:38.250Z,27.50
2022-07-28T18:51:09.937Z,27.90
2022-07-28T18:53:41.340Z,27.60
2022-07-28T18:56:12.990Z,27.70
2022-07-28T18:58:44.433Z,27.50
2022-07-28T19:01:17.500Z,27.30
2022-07-28T19:03:51.375Z,27.30
2022-07-28T19:06:42.854Z,27.70
2022-07-28T19:09:14.198Z,27.40
2022-07-28T19:11:46.693Z,27.50
2022-07-28T19:14:18.960Z,27.60
2022-07-28T19:16:50.898Z,27.40
2022-07-28T19:19:24.888Z,27.40
2022-07-28T19:21:56.441Z,27.60
2022-07-28T19:24:27.847Z,28.00
2022-07-28T19:27:00.051Z,28.20
2022-07-28T19:29:31.630Z,28.40
2022-07-28T19:32:04.807Z,28.70
2022-07-28T19:34:38.851Z,28.90
2022-07-28T19:37:16.803Z,29.50
2022-07-28T19:39:48.781Z,29.60
2022-07-28T19:42:20.318Z,29.70
2022-07-28T19:44:55.864Z,29.40
2022-07-28T19:47:27.578Z,28.90
2022-07-28T19:50:01.481Z,28.60
2022-07-28T19:52:33.626Z,28.70
2022-07-28T19:55:06.523Z,29.00
2022-07-28T19:57:38.078Z,29.40
2022-07-28T20:00:11.130Z,29.50
2022-07-28T20:02:46.195Z,29.70
2022-07-28T20:05:20.263Z,29.30
2022-07-28T20:07:51.935Z,29.40
2022-07-28T20:10:23.394Z,29.00
2022-07-28T20:12:55.383Z,29.30
2022-07-28T20:15:26.776Z,29.10
2022-07-28T20:17:58.326Z,29.70
2022-07-28T20:20:32.381Z,29.50
2022-07-28T20:23:04.051Z,29.70
2022-07-28T20:25:35.450Z,29.80
2022-07-28T20:28:07.255Z,29.70
2022-07-28T20:30:38.614Z,30.00
2022-07-28T20:33:10.176Z,29.80
2022-07-28T20:35:44.257Z,29.90
2022-07-28T20:38:15.930Z,30.00
2022-07-28T20:40:47.261Z,30.00
2022-07-28T20:43:18.880Z,30.60
2022-07-28T20:45:50.338Z,30.40
2022-07-28T20:48:21.652Z,30.90
2022-07-28T20:50:55.363Z,31.70
2022-07-28T20:53:26.991Z,31.00
2022-07-28T20:55:58.593Z,31.20
2022-07-28T20:58:30.688Z,31.10
2022-07-28T21:01:01.951Z,31.60
2022-07-28T21:03:33.713Z,31.70
2022-07-28T21:06:07.962Z,32.30
2022-07-28T21:08:41.465Z,32.10
2022-07-28T21:11:13.179Z,32.90
2022-07-28T21:13:44.846Z,32.60
2022-07-28T21:16:16.984Z,32.70
2022-07-28T21:18:48.576Z,32.80
2022-07-28T21:21:22.460Z,33.10
2022-07-28T21:23:54.468Z,33.00
2022-07-28T21:26:25.733Z,33.00
2022-07-28T21:29:09.837Z,33.30
2022-07-28T21:31:58.479Z,33.80
2022-07-28T21:34:37.517Z,33.70
2022-07-28T21:37:11.958Z,34.10
2022-07-28T21:39:43.926Z,34.30
2022-07-28T21:42:15.202Z,35.10
2022-07-28T21:44:46.726Z,34.90
2022-07-28T21:47:18.006Z,35.50
2022-07-28T21:49:49.506Z,35.50
2022-07-28T21:52:23.493Z,35.70
2022-07-28T21:54:54.976Z,36.10
2022-07-28T21:57:26.590Z,36.50
2022-07-28T21:59:58.779Z,37.00
2022-07-28T22:02:29.852Z,37.60
2022-07-28T22:05:01.276Z,37.60
2022-07-28T22:07:35.370Z,38.30
2022-07-28T22:10:07.742Z,38.70
2022-07-28T22:12:39.126Z,38.50
2022-07-28T22:15:11.402Z,39.20
2022-07-28T22:17:42.941Z,40.10
2022-07-28T22:20:15.365Z,40.10
2022-07-28T22:22:49.389Z,40.40
2022-07-28T22:25:21.034Z,41.30
2022-07-28T22:27:52.447Z,41.90
2022-07-28T22:30:24.527Z,42.50
2022-07-28T22:32:55.782Z,43.60
2022-07-28T22:35:28.089Z,43.00
2022-07-28T22:38:02.121Z,43.40
2022-07-28T22:40:33.781Z,43.90
2022-07-28T22:43:05.351Z,44.50
2022-07-28T22:45:51.082Z,45.10
2022-07-28T22:48:22.981Z,45.70
2022-07-28T22:50:54.637Z,46.70
2022-07-28T22:53:28.551Z,47.30
2022-07-28T22:56:00.501Z,48.00
2022-07-28T22:58:32.009Z,48.80
2022-07-28T23:01:03.679Z,49.50
2022-07-28T23:03:37.424Z,50.40
2022-07-28T23:06:10.149Z,50.70
2022-07-28T23:08:44.194Z,51.30
2022-07-28T23:11:16.202Z,51.80
2022-07-28T23:13:47.546Z,53.20
2022-07-28T23:16:19.284Z,53.40
2022-07-28T23:18:50.659Z,54.10
2022-07-28T23:21:23.857Z,54.20
2022-07-28T23:23:57.793Z,53.80
2022-07-28T23:26:29.459Z,55.10
2022-07-28T23:29:00.863Z,55.30
2022-07-28T23:31:32.581Z,56.00
2022-07-28T23:34:03.834Z,55.70
2022-07-28T23:36:35.501Z,56.20
2022-07-28T23:39:09.532Z,57.00
2022-07-28T23:41:41.158Z,58.30
2022-07-28T23:44:12.749Z,58.40
2022-07-28T23:46:44.299Z,59.80
2022-07-28T23:49:16.350Z,60.40
2022-07-28T23:51:48.887Z,60.50
2022-07-28T23:54:23.128Z,59.30
2022-07-28T23:56:56.838Z,60.00
2022-07-28T23:59:28.360Z,58.70
